Topeka, KS (66604)

11:32 AM CDT on July 25, 2016 (GMT -0500)
central topeka 2 | | Change Station

Elev 945 ft 39.03 °N, 95.71 °W | Updated 11 minutes ago

Scattered Clouds
Scattered Clouds
74.3 °F
Feels Like 72 °F
N
0.0
Wind Variable Wind from West

Today
High -- | Low -- °F
--% Chance of Precip.
Yesterday
High -- | Low -- °F
Precip. -- in
Pressure 30.09 in
Visibility 10.0 miles
Clouds Scattered Clouds 6500 ft
Heat Index 72 °F
Dew Point 72 °F
Humidity 92%
Rainfall 0.11 in
Snow Depth Not available.
6:17 AM 8:40 PM
Waning Gibbous, 64% visible
METAR KTOP 251553Z 01003KT 10SM SCT065 23/21 A3012 RMK AO2 SLP189 T02330206
Pressure 30.09 in
Visibility 10.0 miles
Clouds Scattered Clouds 6500 ft
Heat Index 72 °F
Dew Point 72 °F
Humidity 92%
Rainfall 0.11 in
Snow Depth Not available.
6:17 AM 8:40 PM
Waning Gibbous, 64% visible
METAR KTOP 251553Z 01003KT 10SM SCT065 23/21 A3012 RMK AO2 SLP189 T02330206

10-Day Weather Forecast

Almanac

Astronomy

Jul. 25, 2016 Rise Set
Actual Time
Civil Twilight
Nautical Twilight
Astronomical Twilight
Moon
Length of Visible Light
Length of Day
Tomorrow will be .
, % of the Moon is Illuminated

Today's Extremes

State Highs State Lows

Community

WunderPhotos

Upload Photos

1,927,345 photos uploaded!

WunderBlog® & News

Nearby

Air Quality

  Air Quality AQ Index Pollutant
Not available.

Snow Depth

Station Depth Elevation

Earthquake Activity

City Distance Mag. Time & Date
Minimum magnitude displayed is 2.5.

Coastal Water Temperatures

Place Temperature

Stations

Nearby Weather Stations

Station Location Temp. Windchill Dew Point Humidity Wind Precip. Elev Updated Type
                   

Watches & Warnings

There are currently no watches in effect.